WetterOnline ( https://www.wetteronline.de )

Wetter aktuell Bad Hersfeld

Aktuelles Wetter: Bad Hersfeld (273m)

6-stündlich | Neueste Meldungen
Ortszeit Temperatur Wetter
Mi, 19.05. 2:00 6.3° C fast wolkenlos
Di, 18.05. 20:00 12.1° C wolkig
Di, 18.05. 14:00 11.2° C leichter Regen
Di, 18.05. 8:00 8.3° C Regen
Di, 18.05. 2:00 9.0° C bedeckt
Mo, 17.05. 20:00 10.5° C bedeckt
Mo, 17.05. 14:00 9.8° C leichter Regen
Mo, 17.05. 8:00 9.0° C bedeckt
Ortszeit Temperatur Wetter
Mi, 19.05. 3:30 6.3° C bewölkt
Mi, 19.05. 3:20 6.3° C bewölkt
Mi, 19.05. 3:10 6.0° C bewölkt
Mi, 19.05. 3:00 5.7° C bewölkt
Mi, 19.05. 2:50 5.7° C bewölkt
Mi, 19.05. 2:40 6.2° C wolkig
Mi, 19.05. 2:30 5.7° C leicht bewölkt
Mi, 19.05. 2:00 6.3° C fast wolkenlos
Mi, 19.05. 1:30 6.4° C wolkenlos
Mi, 19.05. 1:00 6.6° C wolkenlos
Mi, 19.05. 0:30 7.9° C leicht bewölkt
Ortszeit Relative Feuchte Sichtweite
Mi, 19.05. 2:00 92% 45 km
Di, 18.05. 20:00 69% 60 km
Di, 18.05. 14:00 78% 40 km
Di, 18.05. 8:00 97% 3.5 km
Di, 18.05. 2:00 90% 35 km
Mo, 17.05. 20:00 92% >70 km
Mo, 17.05. 14:00 87% 29 km
Mo, 17.05. 8:00 92% 50 km
Ortszeit Relative Feuchte Sichtweite
Mi, 19.05. 3:30 95% 35 km
Mi, 19.05. 3:20 95% -
Mi, 19.05. 3:10 95% -
Mi, 19.05. 3:00 95% 35 km
Mi, 19.05. 2:50 95% -
Mi, 19.05. 2:40 94% -
Mi, 19.05. 2:30 96% 40 km
Mi, 19.05. 2:00 92% 45 km
Mi, 19.05. 1:30 91% 45 km
Mi, 19.05. 1:00 91% 45 km
Mi, 19.05. 0:30 84% 60 km
Ortszeit Niederschlagsmenge Niederschlagsart
Mi, 19.05. 2:00 0.0 l/m2 in 6 Std. -
Di, 18.05. 20:00 3 l/m2 in 12 Std. Regen
Di, 18.05. 14:00 3 l/m2 in 6 Std. Regen
Di, 18.05. 8:00 1 l/m2 in 12 Std. Regen
Di, 18.05. 2:00 0.1 l/m2 in 6 Std. Regen
Mo, 17.05. 20:00 6 l/m2 in 12 Std. Regen
Mo, 17.05. 14:00 2 l/m2 in 6 Std. Regen
Mo, 17.05. 8:00 2 l/m2 in 12 Std. Regen
Ortszeit Niederschlagsmenge Niederschlagsart
Mi, 19.05. 3:30 0.0 l/m2 in 1 Std. -
Mi, 19.05. 3:20 keine Meldung -
Mi, 19.05. 3:10 keine Meldung -
Mi, 19.05. 3:00 0.0 l/m2 in 1 Std. -
Mi, 19.05. 2:50 keine Meldung -
Mi, 19.05. 2:40 keine Meldung -
Mi, 19.05. 2:30 0.0 l/m2 in 1 Std. -
Mi, 19.05. 2:00 0.0 l/m2 in 1 Std. -
Mi, 19.05. 1:30 0.0 l/m2 in 1 Std. -
Mi, 19.05. 1:00 0.0 l/m2 in 1 Std. -
Mi, 19.05. 0:30 0.0 l/m2 in 1 Std. -
Ortszeit Stärke Spitze Richtung
km/h Bft. km/h Grad Sektor
Mi, 19.05. 2:00 6 1 15 200° S
Di, 18.05. 20:00 9 2 44 210° SW
Di, 18.05. 14:00 14 3 54 220° SW
Di, 18.05. 8:00 6 1 19 200° S
Di, 18.05. 2:00 11 2 29 220° SW
Mo, 17.05. 20:00 19 3 41 180° S
Mo, 17.05. 14:00 28 4 50 220° SW
Mo, 17.05. 8:00 14 3 22 180° S
Ortszeit Stärke Spitze Richtung
km/h Bft. km/h Grad Sektor
Mi, 19.05. 3:30 7 2 11 180° S
Mi, 19.05. 3:20 7 2 - 180° S
Mi, 19.05. 3:10 7 2 - 180° S
Mi, 19.05. 3:00 6 1 11 210° SW
Mi, 19.05. 2:50 6 1 - 210° SW
Mi, 19.05. 2:40 7 2 - 190° S
Mi, 19.05. 2:30 6 1 9 190° S
Mi, 19.05. 2:00 6 1 13 200° S
Mi, 19.05. 1:30 4 1 11 200° S
Mi, 19.05. 1:00 6 1 11 180° S
Mi, 19.05. 0:30 7 2 11 230° SW
Ortszeit Untergrenze Bedeckung Gattung
total tief tief mittel hoch
Mi, 19.05. 2:00 2100 m 1/8 1/8 - - -
Di, 18.05. 20:00 6300 m 6/8 6/8 - - -
Di, 18.05. 14:00 1440 m 7/8 2/8 - - -
Di, 18.05. 8:00 210 m 8/8 8/8 - - -
Di, 18.05. 2:00 810 m 8/8 8/8 - - -
Mo, 17.05. 20:00 570 m 8/8 8/8 - - -
Mo, 17.05. 14:00 600 m 8/8 7/8 - - -
Mo, 17.05. 8:00 360 m 8/8 8/8 - - -
Ortszeit Bedeckungsgrad in Achtel und Wolkenuntergrenze
Mi, 19.05. 3:30 5(660m) 7(2400m)
Mi, 19.05. 3:20 5(660m) 7(2400m)
Mi, 19.05. 3:10 2(690m) 7(2100m)
Mi, 19.05. 3:00 7(2400m)
Mi, 19.05. 2:50 7(2400m)
Mi, 19.05. 2:40 1(1800m) 5(2400m)
Mi, 19.05. 2:30 1(2100m) 3(2400m)
Mi, 19.05. 2:00 1(2100m)
Mi, 19.05. 1:30 keine Wolken
Mi, 19.05. 1:00 keine Wolken
Mi, 19.05. 0:30 2(930m) 3(1230m)
Ortszeit Luftdruck NN (hPa) Tendenz (hPa in 3 Std.)
Mi, 19.05. 2:00 1016 + 0,6
Di, 18.05. 20:00 1013 - 0,2
Di, 18.05. 14:00 1013 0,0
Di, 18.05. 8:00 1013 + 1,1
Di, 18.05. 2:00 1011 + 1,9
Mo, 17.05. 20:00 1006 + 0,8
Mo, 17.05. 14:00 1006 + 0,6
Mo, 17.05. 8:00 1004 + 0,9
Ortszeit Luftdruck NN (hPa) Tendenz (hPa in 3 Std.)
Mi, 19.05. 3:30 1016 + 0,3
Mi, 19.05. 3:20 1016 keine Meldung
Mi, 19.05. 3:10 1016 keine Meldung
Mi, 19.05. 3:00 1016 + 0,3
Mi, 19.05. 2:50 1016 keine Meldung
Mi, 19.05. 2:40 1016 keine Meldung
Mi, 19.05. 2:30 1016 + 0,5
Mi, 19.05. 2:00 1016 + 0,6
Mi, 19.05. 1:30 1016 + 0,8
Mi, 19.05. 1:00 1016 + 1,2
Mi, 19.05. 0:30 1016 + 1,5
Ortszeit Schneehöhe (cm)
Mi, 19.05. 2:00 0
Di, 18.05. 20:00 0
Di, 18.05. 14:00 0
Di, 18.05. 8:00 0
Di, 18.05. 2:00 0
Mo, 17.05. 20:00 0
Mo, 17.05. 14:00 0
Mo, 17.05. 8:00 0
Ortszeit Schneehöhe (cm)
Mi, 19.05. 3:30 0
Mi, 19.05. 3:20 0
Mi, 19.05. 3:10 0
Mi, 19.05. 3:00 0
Mi, 19.05. 2:50 0
Mi, 19.05. 2:40 0
Mi, 19.05. 2:30 0
Mi, 19.05. 2:00 0
Mi, 19.05. 1:30 0
Mi, 19.05. 1:00 0
Mi, 19.05. 0:30 0
Link zu dieser Seite / Seite empfehlen

Das Wetter in ...